PT4 weather

CLOSED Arthur North Airport
Arthur, Ontario, Canada

Public forecast

Using degrees Celsius for public forecast. Weather courtesy of forecast.io.

METAR (pilot weather report)

Closest report is Waterloo Airport, 26.2 nm (48.6 km) SSE. Retrieved 2019/09/21 07:08 UTC (51 minutes ago):

CYKF 210708Z AUTO 00000KT 2 1/4SM BR CLR 13/13 A3018 RMK SLP220

TAF (pilot weather forecast)

Closest forecast is Waterloo Airport, 26.2 nm (48.6 km) SSE. Retrieved 2019/09/21 08:45 UTC (0 seconds ago):

TAF TAF CYKF 210742Z 2108/2120 VRB03KT 3SM BR SKC TEMPO 2108/2113 1SM BR PROB30 2108/2113 1/4SM FG VV002 FM211300 18008KT P6SM SCT050 TEMPO 2119/2120 P6SM -SHRA OVC050 RMK FCST BASED ON AUTO OBS. NXT FCST BY 211400Z